createdAt,value
2023-04-13T00:00:48.552Z,16.28
2023-04-13T00:03:20.418Z,16.31
2023-04-13T00:05:48.944Z,16.44
2023-04-13T00:08:17.896Z,16.50
2023-04-13T00:10:46.232Z,16.42
2023-04-13T00:13:15.183Z,16.35
2023-04-13T00:15:43.646Z,16.51
2023-04-13T00:18:12.474Z,16.57
2023-04-13T00:20:42.109Z,16.56
2023-04-13T00:23:10.171Z,16.67
2023-04-13T00:25:38.182Z,16.54
2023-04-13T00:28:06.816Z,16.30
2023-04-13T00:30:34.939Z,16.48
2023-04-13T00:33:06.130Z,16.55
2023-04-13T00:35:34.356Z,16.65
2023-04-13T00:38:04.929Z,16.45
2023-04-13T00:40:33.034Z,16.36
2023-04-13T00:43:02.631Z,16.32
2023-04-13T00:45:30.707Z,16.27
2023-04-13T00:47:58.475Z,16.19
2023-04-13T00:50:26.583Z,16.15
2023-04-13T00:52:54.214Z,16.18
2023-04-13T00:55:22.202Z,16.25
2023-04-13T00:57:53.480Z,16.28
2023-04-13T01:00:23.037Z,16.26
2023-04-13T01:02:51.511Z,16.01
2023-04-13T01:05:19.990Z,16.08
2023-04-13T01:07:47.940Z,16.32
2023-04-13T01:10:27.796Z,16.18
2023-04-13T01:12:55.417Z,16.27
2023-04-13T01:15:23.798Z,16.14
2023-04-13T01:17:57.297Z,15.97
2023-04-13T01:20:28.942Z,16.18
2023-04-13T01:22:57.669Z,16.25
2023-04-13T01:25:40.320Z,16.35
2023-04-13T01:28:08.005Z,16.19
2023-04-13T01:30:37.917Z,16.26
2023-04-13T01:33:06.884Z,16.18
2023-04-13T01:35:37.254Z,16.19
2023-04-13T01:38:07.009Z,16.33
2023-04-13T01:40:37.408Z,16.19
2023-04-13T01:43:04.936Z,16.12
2023-04-13T01:45:48.019Z,16.25
2023-04-13T01:48:21.468Z,16.22
2023-04-13T01:51:08.576Z,16.28
2023-04-13T01:53:44.475Z,16.34
2023-04-13T01:56:17.077Z,16.05
2023-04-13T01:58:49.947Z,15.96
2023-04-13T02:01:18.227Z,15.96
2023-04-13T02:03:46.298Z,15.97
2023-04-13T02:06:14.796Z,16.08
2023-04-13T02:08:44.228Z,16.33
2023-04-13T02:11:12.844Z,15.99
2023-04-13T02:13:40.399Z,16.09
2023-04-13T02:16:10.318Z,15.90
2023-04-13T02:18:38.767Z,16.05
2023-04-13T02:21:11.532Z,16.04
2023-04-13T02:23:40.697Z,15.88
2023-04-13T02:26:09.094Z,15.86
2023-04-13T02:28:37.075Z,15.67
2023-04-13T02:31:06.061Z,15.84
2023-04-13T02:33:34.486Z,15.86
2023-04-13T02:36:04.140Z,15.80
2023-04-13T02:38:37.675Z,15.90
2023-04-13T02:41:23.166Z,16.16
2023-04-13T02:43:51.157Z,15.99
2023-04-13T02:46:23.275Z,16.09
2023-04-13T02:48:56.632Z,15.98
2023-04-13T02:51:28.126Z,15.97
2023-04-13T02:53:57.729Z,16.00
2023-04-13T02:56:28.613Z,15.94
2023-04-13T02:58:59.935Z,15.98
2023-04-13T03:01:29.657Z,16.03
2023-04-13T03:03:57.752Z,15.88
2023-04-13T03:06:28.836Z,15.87
2023-04-13T03:09:01.294Z,16.03
2023-04-13T03:11:35.777Z,15.95
2023-04-13T03:14:22.263Z,16.15
2023-04-13T03:17:00.993Z,16.04
2023-04-13T03:19:38.140Z,16.03
2023-04-13T03:22:08.444Z,15.70
2023-04-13T03:24:41.987Z,15.76
2023-04-13T03:27:11.821Z,15.80
2023-04-13T03:29:45.280Z,15.68
2023-04-13T03:32:20.140Z,15.76
2023-04-13T03:34:51.690Z,15.91
2023-04-13T03:37:20.034Z,15.95
2023-04-13T03:39:48.692Z,15.75
2023-04-13T03:42:21.370Z,15.68
2023-04-13T03:44:55.092Z,15.74
2023-04-13T03:47:24.248Z,15.85
2023-04-13T03:49:52.426Z,15.95
2023-04-13T03:52:20.596Z,15.71
2023-04-13T03:54:55.537Z,15.90
2023-04-13T03:57:26.875Z,15.89
2023-04-13T03:59:54.570Z,15.72
2023-04-13T04:02:31.256Z,15.68
2023-04-13T04:05:00.075Z,15.69
2023-04-13T04:07:28.542Z,15.73
2023-04-13T04:09:56.817Z,15.65
2023-04-13T04:12:25.522Z,15.57
2023-04-13T04:14:53.099Z,15.48
2023-04-13T04:17:26.251Z,15.50
2023-04-13T04:19:54.481Z,15.43
2023-04-13T04:22:30.449Z,15.28
2023-04-13T04:25:00.287Z,15.34
2023-04-13T04:27:28.512Z,15.43
2023-04-13T04:30:04.721Z,15.01
2023-04-13T04:32:37.446Z,15.27
2023-04-13T04:35:12.294Z,15.29
2023-04-13T04:37:49.948Z,15.19
2023-04-13T04:40:19.256Z,15.39
2023-04-13T04:42:47.570Z,15.14
2023-04-13T04:45:27.968Z,15.22
2023-04-13T04:47:59.113Z,15.31
2023-04-13T04:50:28.130Z,15.09
2023-04-13T04:53:08.179Z,15.42
2023-04-13T04:55:35.803Z,15.10
2023-04-13T04:58:04.248Z,15.28
2023-04-13T05:00:33.687Z,14.96
2023-04-13T05:03:08.671Z,15.32
2023-04-13T05:05:40.051Z,14.93
2023-04-13T05:08:13.344Z,14.98
2023-04-13T05:10:46.485Z,14.89
2023-04-13T05:13:15.218Z,14.95
2023-04-13T05:15:50.407Z,15.02
2023-04-13T05:18:19.938Z,15.04
2023-04-13T05:20:47.541Z,15.00
2023-04-13T05:23:15.458Z,15.00
2023-04-13T05:25:52.848Z,14.96
2023-04-13T05:28:22.800Z,15.07
2023-04-13T05:30:52.650Z,15.02
2023-04-13T05:33:20.834Z,15.15
2023-04-13T05:35:54.104Z,15.20
2023-04-13T05:38:23.021Z,15.42
2023-04-13T05:40:53.766Z,15.35
2023-04-13T05:43:23.949Z,15.48
2023-04-13T05:45:53.650Z,15.47
2023-04-13T05:48:23.218Z,15.50
2023-04-13T05:50:58.757Z,15.68
2023-04-13T05:53:30.102Z,15.65
2023-04-13T05:55:58.638Z,15.74
2023-04-13T05:58:28.275Z,15.85
2023-04-13T06:01:17.124Z,15.54
2023-04-13T06:03:45.408Z,15.86
2023-04-13T06:06:13.527Z,15.59
2023-04-13T06:08:41.576Z,15.75
2023-04-13T06:11:09.379Z,15.58
2023-04-13T06:13:39.516Z,15.59
2023-04-13T06:16:09.143Z,15.62
2023-04-13T06:18:37.687Z,15.47
2023-04-13T06:21:05.422Z,15.38
2023-04-13T06:23:34.553Z,15.39
2023-04-13T06:26:07.508Z,15.40
2023-04-13T06:28:45.206Z,15.40
2023-04-13T06:31:13.998Z,15.54
2023-04-13T06:33:43.764Z,15.35
2023-04-13T06:36:12.805Z,15.33
2023-04-13T06:38:41.112Z,15.26
2023-04-13T06:41:13.640Z,15.29
2023-04-13T06:43:45.440Z,15.51
2023-04-13T06:46:29.215Z,15.64
2023-04-13T06:49:03.077Z,15.54
2023-04-13T06:51:34.127Z,15.63
2023-04-13T06:54:02.080Z,15.51
2023-04-13T06:56:29.703Z,15.57
2023-04-13T06:59:02.495Z,15.58
2023-04-13T07:01:32.820Z,15.78
2023-04-13T07:04:03.119Z,15.86
2023-04-13T07:06:32.699Z,15.82
2023-04-13T07:09:02.165Z,15.94
2023-04-13T07:11:32.224Z,16.15
2023-04-13T07:14:01.709Z,16.09
2023-04-13T07:16:29.393Z,15.86
2023-04-13T07:19:01.359Z,16.00
2023-04-13T07:21:32.105Z,16.16
2023-04-13T07:24:05.653Z,16.13
2023-04-13T07:26:36.258Z,15.96
2023-04-13T07:29:04.335Z,15.81
2023-04-13T07:31:37.912Z,15.75
2023-04-13T07:34:07.276Z,15.79
2023-04-13T07:36:44.522Z,16.01
2023-04-13T07:39:16.410Z,16.28
2023-04-13T07:41:47.988Z,16.14
2023-04-13T07:44:22.205Z,16.32
2023-04-13T07:46:49.914Z,16.08
2023-04-13T07:49:18.643Z,16.16
2023-04-13T07:51:47.171Z,16.07
2023-04-13T07:54:17.471Z,16.29
2023-04-13T07:56:46.439Z,16.50
2023-04-13T07:59:15.351Z,16.66
2023-04-13T08:01:46.680Z,16.37
2023-04-13T08:04:15.260Z,16.38
2023-04-13T08:06:44.547Z,16.61
2023-04-13T08:09:12.679Z,16.56
2023-04-13T08:11:40.580Z,16.32
2023-04-13T08:14:10.149Z,16.33
2023-04-13T08:16:39.382Z,16.50
2023-04-13T08:19:10.554Z,16.32
2023-04-13T08:21:43.057Z,16.38
2023-04-13T08:24:10.990Z,16.09
2023-04-13T08:26:38.573Z,16.27
2023-04-13T08:29:06.699Z,16.56
2023-04-13T08:31:36.603Z,16.47
2023-04-13T08:34:10.575Z,15.70
2023-04-13T08:36:38.664Z,15.75
2023-04-13T08:39:10.404Z,15.80
2023-04-13T08:41:44.538Z,15.42
2023-04-13T08:44:13.654Z,15.00
2023-04-13T08:46:45.429Z,15.32
2023-04-13T08:49:14.060Z,15.86
2023-04-13T08:52:04.999Z,15.87
2023-04-13T08:54:35.414Z,16.09
2023-04-13T08:57:05.386Z,16.18
2023-04-13T08:59:34.796Z,15.89
2023-04-13T09:02:04.981Z,16.02
2023-04-13T09:04:39.480Z,15.83
2023-04-13T09:07:08.552Z,15.72
2023-04-13T09:09:43.602Z,16.11
2023-04-13T09:12:14.810Z,16.16
2023-04-13T09:14:43.981Z,16.27
2023-04-13T09:17:22.359Z,16.47
2023-04-13T09:19:56.393Z,16.51
2023-04-13T09:22:26.143Z,16.50
2023-04-13T09:24:54.134Z,16.57
2023-04-13T09:27:22.269Z,16.94
2023-04-13T09:29:54.012Z,17.13
2023-04-13T09:32:23.103Z,16.84
2023-04-13T09:35:04.914Z,16.75
2023-04-13T09:37:32.983Z,17.13
2023-04-13T09:40:11.381Z,17.37
2023-04-13T09:42:39.908Z,17.65
2023-04-13T09:45:08.678Z,17.94
2023-04-13T09:47:40.835Z,17.49
2023-04-13T09:50:28.499Z,18.00
2023-04-13T09:52:59.902Z,18.78
2023-04-13T09:55:28.279Z,19.56
2023-04-13T09:57:56.286Z,20.18
2023-04-13T10:00:25.857Z,19.65
2023-04-13T10:02:53.920Z,19.21
2023-04-13T10:05:22.880Z,19.58
2023-04-13T10:07:51.801Z,19.01
2023-04-13T10:10:19.905Z,18.99
2023-04-13T10:12:48.520Z,18.91
2023-04-13T10:15:25.858Z,18.98
2023-04-13T10:18:12.117Z,19.19
2023-04-13T10:20:40.618Z,19.51
2023-04-13T10:23:08.509Z,19.74
2023-04-13T10:25:39.181Z,20.02
2023-04-13T10:28:07.704Z,20.09
2023-04-13T10:30:35.587Z,19.96
2023-04-13T10:33:06.049Z,19.88
2023-04-13T10:35:35.954Z,20.15
2023-04-13T10:38:04.103Z,20.01
2023-04-13T10:40:48.008Z,19.46
2023-04-13T10:43:31.821Z,19.31
2023-04-13T10:46:09.404Z,19.22
2023-04-13T10:48:37.481Z,18.82
2023-04-13T10:51:05.584Z,18.74
2023-04-13T10:53:35.355Z,18.79
2023-04-13T10:56:03.358Z,18.83
2023-04-13T10:58:33.310Z,19.46
2023-04-13T11:01:01.485Z,18.85
2023-04-13T11:03:29.210Z,19.29
2023-04-13T11:05:58.514Z,19.53
2023-04-13T11:08:28.342Z,19.64
2023-04-13T11:10:57.422Z,18.91
2023-04-13T11:13:29.947Z,18.84
2023-04-13T11:16:02.909Z,18.87
2023-04-13T11:18:30.645Z,18.57
2023-04-13T11:20:58.637Z,17.65
2023-04-13T11:23:26.311Z,17.94
2023-04-13T11:25:55.165Z,17.82
2023-04-13T11:28:23.624Z,17.58
2023-04-13T11:31:12.121Z,17.27
2023-04-13T11:33:40.641Z,16.67
2023-04-13T11:36:11.056Z,17.12
2023-04-13T11:38:39.757Z,16.66
2023-04-13T11:41:16.358Z,16.79
2023-04-13T11:43:46.640Z,16.97
2023-04-13T11:46:16.477Z,17.26
2023-04-13T11:48:44.307Z,17.15
2023-04-13T11:51:12.530Z,16.90
2023-04-13T11:53:41.037Z,16.74
2023-04-13T11:56:09.316Z,16.91
2023-04-13T11:58:37.960Z,16.75
2023-04-13T12:03:57.126Z,17.17
2023-04-13T12:06:30.183Z,17.43
2023-04-13T12:11:42.336Z,17.81
2023-04-13T12:19:27.169Z,18.62
2023-04-13T12:21:57.588Z,18.73
2023-04-13T12:24:37.916Z,18.90
2023-04-13T12:29:38.545Z,19.06
2023-04-13T12:32:12.130Z,18.63
2023-04-13T12:34:40.910Z,18.83
2023-04-13T12:37:09.349Z,19.02
2023-04-13T12:39:37.434Z,19.09
2023-04-13T12:42:05.653Z,19.26
2023-04-13T12:44:34.383Z,19.52
2023-04-13T12:47:03.091Z,19.95
2023-04-13T12:49:30.791Z,20.28
2023-04-13T12:51:58.774Z,20.22
2023-04-13T12:54:26.346Z,20.49
2023-04-13T12:56:54.259Z,20.50
2023-04-13T12:59:23.465Z,20.44
2023-04-13T13:01:52.041Z,20.64
2023-04-13T13:04:19.584Z,20.45
2023-04-13T13:06:47.724Z,20.38
2023-04-13T13:09:15.985Z,20.29
2023-04-13T13:11:44.236Z,20.46
2023-04-13T13:14:11.853Z,20.37
2023-04-13T13:16:39.787Z,20.43
2023-04-13T13:19:07.481Z,20.34
2023-04-13T13:21:35.499Z,20.39
2023-04-13T13:24:03.152Z,20.31
2023-04-13T13:26:41.725Z,20.24
2023-04-13T13:29:13.410Z,20.17
2023-04-13T13:31:41.605Z,19.96
2023-04-13T13:34:09.944Z,19.73
2023-04-13T13:36:38.173Z,19.74
2023-04-13T13:39:05.661Z,19.51
2023-04-13T13:41:33.538Z,19.62
2023-04-13T13:44:01.187Z,19.39
2023-04-13T13:46:29.225Z,19.51
2023-04-13T13:48:59.377Z,18.80
2023-04-13T13:51:39.884Z,18.71
2023-04-13T13:54:09.466Z,18.55
2023-04-13T13:56:37.292Z,18.38
2023-04-13T13:59:04.885Z,18.59
2023-04-13T14:01:32.979Z,18.59
2023-04-13T14:04:00.714Z,18.78
2023-04-13T14:06:28.787Z,18.90
2023-04-13T14:08:56.352Z,18.65
2023-04-13T14:11:24.413Z,18.82
2023-04-13T14:13:53.861Z,18.65
2023-04-13T14:16:22.402Z,18.67
2023-04-13T14:18:49.906Z,18.71
2023-04-13T14:21:21.578Z,18.61
2023-04-13T14:23:50.346Z,18.60
2023-04-13T14:26:20.297Z,18.38
2023-04-13T14:28:48.224Z,18.55
2023-04-13T14:31:16.232Z,18.58
2023-04-13T14:33:43.922Z,18.82
2023-04-13T14:36:15.217Z,18.61
2023-04-13T14:38:42.770Z,18.56
2023-04-13T14:41:11.131Z,18.93
2023-04-13T14:43:38.933Z,18.95
2023-04-13T14:46:06.933Z,19.18
2023-04-13T14:48:34.622Z,19.20
2023-04-13T14:51:02.548Z,19.12
2023-04-13T14:53:31.100Z,18.99
2023-04-13T14:55:59.333Z,18.95
2023-04-13T14:58:26.798Z,19.08
2023-04-13T15:00:54.703Z,18.95
2023-04-13T15:03:22.401Z,18.76
2023-04-13T15:05:51.096Z,18.82
2023-04-13T15:08:20.012Z,19.07
2023-04-13T15:10:48.092Z,18.99
2023-04-13T15:13:15.621Z,18.45
2023-04-13T15:15:43.489Z,18.34
2023-04-13T15:18:11.054Z,18.27
2023-04-13T15:20:39.048Z,18.41
2023-04-13T15:23:06.631Z,18.24
2023-04-13T15:25:36.734Z,18.25
2023-04-13T15:28:04.245Z,18.61
2023-04-13T15:30:34.740Z,18.46
2023-04-13T15:33:03.063Z,18.30
2023-04-13T15:35:31.329Z,18.41
2023-04-13T15:38:01.196Z,18.48
2023-04-13T15:40:30.815Z,18.69
2023-04-13T15:42:58.744Z,18.49
2023-04-13T15:45:26.656Z,18.43
2023-04-13T15:47:54.256Z,18.48
2023-04-13T15:50:22.206Z,18.53
2023-04-13T15:52:49.744Z,18.43
2023-04-13T15:55:17.614Z,18.38
2023-04-13T15:57:45.135Z,18.27
2023-04-13T16:00:13.574Z,18.30
2023-04-13T16:02:41.241Z,18.38
2023-04-13T16:05:09.356Z,18.19
2023-04-13T16:07:37.133Z,17.78
2023-04-13T16:10:05.248Z,17.12
2023-04-13T16:12:32.822Z,15.10
2023-04-13T16:15:01.578Z,14.26
2023-04-13T16:17:33.304Z,13.93
2023-04-13T16:20:14.040Z,14.59
2023-04-13T16:22:42.302Z,14.47
2023-04-13T16:25:11.626Z,14.56
2023-04-13T16:27:40.313Z,14.00
2023-04-13T16:30:08.850Z,13.36
2023-04-13T16:32:36.831Z,13.67
2023-04-13T16:35:05.072Z,13.33
2023-04-13T16:37:32.591Z,13.07
2023-04-13T16:40:00.450Z,13.06
2023-04-13T16:42:27.982Z,12.55
2023-04-13T16:44:56.461Z,12.94
2023-04-13T16:47:24.325Z,12.97
2023-04-13T16:49:53.575Z,13.01
2023-04-13T16:52:21.181Z,12.91
2023-04-13T16:54:49.070Z,12.91
2023-04-13T16:57:16.754Z,13.63
2023-04-13T16:59:45.017Z,13.30
2023-04-13T17:02:24.662Z,12.89
2023-04-13T17:04:59.049Z,12.87
2023-04-13T17:07:28.421Z,13.19
2023-04-13T17:09:56.686Z,13.12
2023-04-13T17:12:26.750Z,13.21
2023-04-13T17:14:54.951Z,13.06
2023-04-13T17:17:22.563Z,13.09
2023-04-13T17:19:54.035Z,13.58
2023-04-13T17:22:22.290Z,13.96
2023-04-13T17:24:50.471Z,14.09
2023-04-13T17:27:18.242Z,14.05
2023-04-13T17:29:46.519Z,13.63
2023-04-13T17:32:14.263Z,13.38
2023-04-13T17:34:42.531Z,13.60
2023-04-13T17:37:10.170Z,13.69
2023-04-13T17:39:42.388Z,13.46
2023-04-13T17:42:10.126Z,13.47
2023-04-13T17:44:38.065Z,13.42
2023-04-13T17:47:05.641Z,13.49
2023-04-13T17:49:34.731Z,13.43
2023-04-13T17:52:02.385Z,13.66
2023-04-13T17:54:30.311Z,13.64
2023-04-13T17:56:57.843Z,13.52
2023-04-13T17:59:25.960Z,13.39
2023-04-13T18:01:53.623Z,13.49
2023-04-13T18:04:21.817Z,13.31
2023-04-13T18:06:49.462Z,13.44
2023-04-13T18:09:18.582Z,13.59
2023-04-13T18:11:46.245Z,13.27
2023-04-13T18:14:16.067Z,13.27
2023-04-13T18:16:43.662Z,13.35
2023-04-13T18:19:11.607Z,13.54
2023-04-13T18:21:39.356Z,13.41
2023-04-13T18:24:07.542Z,13.52
2023-04-13T18:26:35.338Z,13.54
2023-04-13T18:29:03.410Z,13.63
2023-04-13T18:31:31.215Z,13.77
2023-04-13T18:33:59.532Z,13.47
2023-04-13T18:36:27.992Z,13.33
2023-04-13T18:38:56.185Z,13.49
2023-04-13T18:41:23.875Z,13.34
2023-04-13T18:43:52.362Z,13.32
2023-04-13T18:46:20.625Z,13.08
2023-04-13T18:48:48.428Z,13.28
2023-04-13T18:51:16.066Z,13.32
2023-04-13T18:53:44.666Z,13.11
2023-04-13T18:56:12.218Z,13.14
2023-04-13T18:58:40.415Z,13.05
2023-04-13T19:01:15.691Z,12.65
2023-04-13T19:03:43.959Z,12.64
2023-04-13T19:06:12.184Z,12.93
2023-04-13T19:08:42.023Z,13.01
2023-04-13T19:11:09.840Z,13.03
2023-04-13T19:13:37.840Z,13.22
2023-04-13T19:16:06.942Z,13.40
2023-04-13T19:18:35.183Z,13.32
2023-04-13T19:21:06.625Z,13.37
2023-04-13T19:23:35.357Z,13.54
2023-04-13T19:26:03.813Z,13.32
2023-04-13T19:28:32.831Z,13.61
2023-04-13T19:35:00.204Z,13.56
2023-04-13T19:37:28.125Z,12.73
2023-04-13T19:39:56.069Z,13.30
2023-04-13T19:42:26.175Z,13.36
2023-04-13T19:44:54.471Z,13.19
2023-04-13T19:47:22.752Z,12.65
2023-04-13T19:49:50.520Z,12.65
2023-04-13T19:52:18.731Z,12.46
2023-04-13T19:54:46.574Z,12.14
2023-04-13T19:57:14.751Z,12.60
2023-04-13T19:59:44.094Z,12.48
2023-04-13T20:02:12.741Z,12.54
2023-04-13T20:04:40.779Z,12.57
2023-04-13T20:07:09.111Z,12.20
2023-04-13T20:09:36.830Z,12.25
2023-04-13T20:12:05.810Z,12.49
2023-04-13T20:14:33.711Z,12.83
2023-04-13T20:17:01.932Z,12.91
2023-04-13T20:19:29.581Z,12.68
2023-04-13T20:21:57.975Z,12.36
2023-04-13T20:24:25.659Z,12.26
2023-04-13T20:26:53.935Z,12.49
2023-04-13T20:29:22.927Z,12.40
2023-04-13T20:31:51.024Z,12.50
2023-04-13T20:34:20.487Z,12.43
2023-04-13T20:36:48.478Z,12.46
2023-04-13T20:39:18.700Z,12.19
2023-04-13T20:41:51.006Z,12.27
2023-04-13T20:44:23.784Z,11.91
2023-04-13T20:46:55.057Z,11.73
2023-04-13T20:49:24.299Z,12.39
2023-04-13T20:51:56.280Z,12.26
2023-04-13T20:54:23.961Z,12.47
2023-04-13T20:56:52.164Z,12.22
2023-04-13T20:59:19.685Z,12.50
2023-04-13T21:01:49.112Z,11.99
2023-04-13T21:04:17.374Z,12.19
2023-04-13T21:06:45.344Z,13.02
2023-04-13T21:09:13.875Z,12.81
2023-04-13T21:11:42.884Z,12.85
2023-04-13T21:14:10.611Z,12.56
2023-04-13T21:16:38.748Z,12.13
2023-04-13T21:19:06.628Z,12.02
2023-04-13T21:21:36.004Z,12.28
2023-04-13T21:24:03.617Z,12.43
2023-04-13T21:26:31.450Z,12.08
2023-04-13T21:28:59.001Z,11.78
2023-04-13T21:31:26.970Z,11.98
2023-04-13T21:33:56.223Z,12.19
2023-04-13T21:38:55.123Z,11.74
2023-04-13T21:41:23.170Z,11.45
2023-04-13T21:43:50.970Z,12.15
2023-04-13T21:46:19.220Z,12.20
2023-04-13T21:48:47.001Z,12.11
2023-04-13T21:51:15.014Z,11.95
2023-04-13T21:53:42.625Z,12.00
2023-04-13T21:56:10.880Z,12.14
2023-04-13T21:58:40.009Z,11.84
2023-04-13T22:01:08.588Z,11.81
2023-04-13T22:03:41.393Z,11.72
2023-04-13T22:06:10.881Z,12.19
2023-04-13T22:08:38.763Z,12.07
2023-04-13T22:11:07.154Z,12.40
2023-04-13T22:13:35.034Z,12.54
2023-04-13T22:16:03.080Z,12.24
2023-04-13T22:18:30.736Z,12.56
2023-04-13T22:20:59.850Z,12.15
2023-04-13T22:23:27.510Z,11.82
2023-04-13T22:26:01.909Z,11.93
2023-04-13T22:28:29.971Z,12.31
2023-04-13T22:30:58.555Z,12.30
2023-04-13T22:33:31.977Z,12.34
2023-04-13T22:36:00.049Z,12.00
2023-04-13T22:38:27.657Z,12.06
2023-04-13T22:40:55.655Z,11.75
2023-04-13T22:43:23.419Z,12.05
2023-04-13T22:45:58.457Z,12.13
2023-04-13T22:48:28.064Z,12.02
2023-04-13T22:50:57.119Z,12.01
2023-04-13T22:53:26.147Z,12.32
2023-04-13T22:55:54.247Z,11.94
2023-04-13T22:58:21.872Z,12.05
2023-04-13T23:00:49.944Z,11.86
2023-04-13T23:03:17.720Z,12.14
2023-04-13T23:05:45.884Z,11.47
2023-04-13T23:08:13.391Z,11.80
2023-04-13T23:10:41.367Z,11.90
2023-04-13T23:13:09.030Z,11.47
2023-04-13T23:15:36.988Z,12.11
2023-04-13T23:18:04.679Z,11.89
2023-04-13T23:20:32.874Z,12.08
2023-04-13T23:23:00.689Z,12.34
2023-04-13T23:25:28.880Z,11.85
2023-04-13T23:27:56.488Z,11.94
2023-04-13T23:30:24.368Z,11.87
2023-04-13T23:32:52.222Z,12.30
2023-04-13T23:35:20.437Z,12.37
2023-04-13T23:37:48.044Z,12.46
2023-04-13T23:40:16.103Z,12.71
2023-04-13T23:42:43.691Z,12.67
2023-04-13T23:45:11.827Z,12.78
2023-04-13T23:47:39.601Z,12.89
2023-04-13T23:50:07.829Z,12.76
2023-04-13T23:52:35.425Z,12.68
2023-04-13T23:55:03.360Z,12.51
2023-04-13T23:57:34.333Z,12.48
